createdAt,value
2023-01-13T00:04:08.979Z,2.4
2023-01-13T00:09:10.891Z,2.5
2023-01-13T00:14:12.869Z,2.5
2023-01-13T00:19:15.219Z,2.5
2023-01-13T00:24:17.256Z,2.6
2023-01-13T00:29:19.278Z,2.6
2023-01-13T00:34:21.773Z,2.6
2023-01-13T00:39:23.789Z,2.5
2023-01-13T00:44:25.999Z,2.7
2023-01-13T00:54:32.379Z,2.7
2023-01-13T00:59:34.312Z,2.7
2023-01-13T01:04:36.341Z,2.7
2023-01-13T01:09:38.306Z,2.5
2023-01-13T01:14:40.377Z,2.3
2023-01-13T01:19:42.522Z,2
2023-01-13T01:24:44.795Z,1.8
2023-01-13T01:29:47.305Z,1.3
2023-01-13T01:34:49.487Z,1.2
2023-01-13T01:39:51.523Z,1.1
2023-01-13T01:44:53.756Z,1
2023-01-13T01:49:55.808Z,0.7
2023-01-13T01:54:58.032Z,0.6
2023-01-13T02:00:00.040Z,0.6
2023-01-13T02:15:02.800Z,0.6
2023-01-13T02:20:04.938Z,0.2
2023-01-13T02:25:06.928Z,-0.1
2023-01-13T02:30:09.761Z,-0.2
2023-01-13T02:40:12.117Z,-0.1
2023-01-13T02:45:14.078Z,-0.1
2023-01-13T02:50:15.991Z,-0.1
2023-01-13T02:55:17.914Z,0
2023-01-13T03:00:19.936Z,0
2023-01-13T03:05:21.925Z,-0.1
2023-01-13T03:10:24.118Z,-0.1
2023-01-13T03:15:26.278Z,-0.1
2023-01-13T03:20:28.571Z,-0.1
2023-01-13T03:25:30.592Z,-0.1
2023-01-13T03:30:32.721Z,-0.2
2023-01-13T03:35:35.266Z,-0.3
2023-01-13T03:45:38.047Z,-0.5
2023-01-13T03:50:40.047Z,-0.5
2023-01-13T03:55:42.166Z,-0.6
2023-01-13T04:00:44.145Z,-0.6
2023-01-13T04:05:46.179Z,-0.7
2023-01-13T04:10:48.118Z,-0.6
2023-01-13T04:15:50.251Z,-0.6
2023-01-13T04:20:52.864Z,-0.6
2023-01-13T04:25:54.826Z,-0.6
2023-01-13T04:30:57.293Z,-0.6
2023-01-13T04:35:59.929Z,-0.5
2023-01-13T04:41:01.952Z,-0.5
2023-01-13T04:46:04.134Z,-0.3
2023-01-13T04:51:06.207Z,-0.3
2023-01-13T04:56:08.196Z,-0.4
2023-01-13T05:01:10.740Z,-0.3
2023-01-13T05:06:12.986Z,-0.4
2023-01-13T05:11:14.975Z,-0.3
2023-01-13T05:16:20.414Z,-0.5
2023-01-13T05:21:23.267Z,-0.5
2023-01-13T05:26:25.481Z,-0.4
2023-01-13T05:31:29.070Z,-0.5
2023-01-13T05:41:31.545Z,-0.6
2023-01-13T05:46:33.691Z,-0.6
2023-01-13T05:51:39.088Z,-1
2023-01-13T05:56:45.466Z,-1.1
2023-01-13T06:01:47.737Z,-1.1
2023-01-13T06:06:49.839Z,-1.1
2023-01-13T06:11:51.895Z,-1
2023-01-13T06:16:54.641Z,-0.8
2023-01-13T06:21:56.692Z,-0.9
2023-01-13T06:26:58.863Z,-0.7
2023-01-13T06:32:01.006Z,-0.6
2023-01-13T06:37:03.768Z,-0.7
2023-01-13T06:42:06.084Z,-0.7
2023-01-13T06:47:08.189Z,-0.6
2023-01-13T06:52:10.160Z,-0.4
2023-01-13T06:57:12.311Z,-0.4
2023-01-13T07:02:14.780Z,-0.4
2023-01-13T07:07:17.029Z,-0.3
2023-01-13T07:12:19.060Z,-0.2
2023-01-13T07:17:27.389Z,0.1
2023-01-13T07:22:32.867Z,0
2023-01-13T07:27:35.003Z,0.2
2023-01-13T07:32:37.104Z,0.4
2023-01-13T07:37:39.149Z,0.4
2023-01-13T07:42:41.225Z,0.5
2023-01-13T07:47:50.415Z,0.7
2023-01-13T07:52:45.321Z,0.7
2023-01-13T07:57:49.237Z,0.9
2023-01-13T08:02:52.942Z,1
2023-01-13T08:12:58.878Z,1.1
2023-01-13T08:18:01.251Z,1
2023-01-13T08:23:05.600Z,1.2
2023-01-13T08:28:09.035Z,1.1
2023-01-13T08:33:11.273Z,1.2
2023-01-13T08:43:31.506Z,1.3
2023-01-13T08:54:11.889Z,1.6
2023-01-13T08:58:43.645Z,1.7
2023-01-13T09:03:45.691Z,1.7
2023-01-13T09:08:48.079Z,1.8
2023-01-13T09:13:50.310Z,1.9
2023-01-13T09:18:52.391Z,2
2023-01-13T09:23:54.475Z,2
2023-01-13T09:28:56.608Z,2.2
2023-01-13T09:33:58.677Z,2.3
2023-01-13T09:39:00.751Z,2.4
2023-01-13T09:44:02.886Z,2.5
2023-01-13T09:49:04.941Z,2.6
2023-01-13T09:54:06.915Z,2.6
2023-01-13T09:59:09.730Z,2.7
2023-01-13T10:04:11.856Z,2.7
2023-01-13T10:09:14.017Z,2.9
2023-01-13T10:14:16.169Z,3
2023-01-13T10:19:18.985Z,3.3
2023-01-13T10:24:21.452Z,3.2
2023-01-13T10:29:23.783Z,3.2
2023-01-13T10:34:25.818Z,3.4
2023-01-13T10:39:28.470Z,3.6
2023-01-13T10:44:30.512Z,3.6
2023-01-13T10:49:32.748Z,3.7
2023-01-13T10:54:35.006Z,3.8
2023-01-13T10:59:37.233Z,3.9
2023-01-13T11:04:39.623Z,3.8
2023-01-13T11:09:41.870Z,3.9
2023-01-13T11:14:44.004Z,4.1
2023-01-13T11:19:46.137Z,4.3
2023-01-13T11:24:51.699Z,4.5
2023-01-13T11:29:53.749Z,4.5
2023-01-13T11:34:56.678Z,4.8
2023-01-13T11:39:58.797Z,5
2023-01-13T11:45:02.454Z,4.8
2023-01-13T11:50:06.058Z,4.8
2023-01-13T11:55:08.271Z,5
2023-01-13T12:00:11.108Z,5.1
2023-01-13T12:05:14.154Z,5
2023-01-13T12:10:16.767Z,5.2
2023-01-13T12:15:20.203Z,5.1
2023-01-13T12:20:22.457Z,5.2
2023-01-13T12:25:25.116Z,5.3
2023-01-13T12:30:27.771Z,5.8
2023-01-13T12:35:29.918Z,5.8
2023-01-13T12:40:32.179Z,5.7
2023-01-13T12:45:34.408Z,5.7
2023-01-13T12:50:36.677Z,5.7
2023-01-13T12:55:38.742Z,5.8
2023-01-13T13:00:41.183Z,5.6
2023-01-13T13:05:44.262Z,5.9
2023-01-13T13:10:46.547Z,5.9
2023-01-13T13:15:48.878Z,5.9
2023-01-13T13:20:51.118Z,5.9
2023-01-13T13:25:53.583Z,5.9
2023-01-13T13:30:57.977Z,6
2023-01-13T13:36:00.430Z,5.9
2023-01-13T13:41:02.632Z,6.1
2023-01-13T13:46:05.139Z,5.8
2023-01-13T13:51:07.400Z,5.8
2023-01-13T13:56:09.641Z,5.8
2023-01-13T14:01:12.275Z,5.7
2023-01-13T14:06:15.170Z,5.7
2023-01-13T14:11:17.211Z,5.7
2023-01-13T14:16:19.382Z,5.7
2023-01-13T14:21:21.556Z,5.6
2023-01-13T14:26:30.065Z,5.7
2023-01-13T14:31:32.923Z,5.8
2023-01-13T14:36:35.205Z,5.8
2023-01-13T14:41:37.558Z,5.8
2023-01-13T14:46:40.475Z,5.7
2023-01-13T14:51:42.812Z,5.7
2023-01-13T14:56:45.072Z,5.8
2023-01-13T15:01:47.914Z,5.7
2023-01-13T15:06:50.139Z,5.7
2023-01-13T15:11:52.207Z,5.7
2023-01-13T15:16:54.750Z,5.6
2023-01-13T15:21:56.963Z,5.6
2023-01-13T15:26:59.251Z,5.6
2023-01-13T15:32:04.396Z,5.6
2023-01-13T15:37:06.664Z,5.6
2023-01-13T15:42:08.860Z,5.6
2023-01-13T15:47:11.094Z,5.5
2023-01-13T15:52:15.103Z,5.5
2023-01-13T15:57:17.467Z,5.6
2023-01-13T16:02:19.625Z,5.5
2023-01-13T16:07:22.372Z,5.4
2023-01-13T16:12:24.545Z,5.4
2023-01-13T16:17:26.785Z,5.4
2023-01-13T16:22:29.823Z,5.5
2023-01-13T16:27:32.418Z,5.6
2023-01-13T16:32:36.806Z,5.5
2023-01-13T16:37:39.079Z,5.5
2023-01-13T16:42:41.264Z,5.6
2023-01-13T16:47:43.475Z,5.6
2023-01-13T16:52:46.771Z,5.6
2023-01-13T16:57:48.861Z,5.5
2023-01-13T17:02:50.975Z,5.5
2023-01-13T17:07:53.131Z,5.5
2023-01-13T17:12:56.035Z,5.5
2023-01-13T17:18:00.161Z,5.5
2023-01-13T17:23:02.304Z,5.5
2023-01-13T17:28:04.684Z,5.5
2023-01-13T17:33:06.739Z,5.5
2023-01-13T17:38:09.365Z,5.4
2023-01-13T17:43:11.353Z,5.4
2023-01-13T17:48:13.499Z,5.4
2023-01-13T17:53:16.005Z,5.4
2023-01-13T17:58:19.218Z,5.3
2023-01-13T18:03:21.254Z,5.3
2023-01-13T18:08:23.395Z,5.2
2023-01-13T18:13:26.040Z,5.2
2023-01-13T18:18:29.048Z,5.1
2023-01-13T18:23:31.976Z,5.1
2023-01-13T18:28:34.232Z,5
2023-01-13T18:33:36.611Z,5
2023-01-13T18:38:38.811Z,5
2023-01-13T18:43:41.042Z,5
2023-01-13T18:48:43.167Z,5
2023-01-13T18:53:45.434Z,5
2023-01-13T18:58:47.659Z,4.9
2023-01-13T19:03:49.734Z,4.9
2023-01-13T19:08:51.932Z,4.9
2023-01-13T19:13:56.658Z,4.8
2023-01-13T19:18:58.906Z,4.8
2023-01-13T19:24:01.221Z,4.8
2023-01-13T19:29:08.959Z,4.8
2023-01-13T19:34:11.625Z,4.7
2023-01-13T19:39:13.989Z,4.7
2023-01-13T19:44:16.871Z,4.7
2023-01-13T19:49:18.986Z,4.6
2023-01-13T19:54:21.450Z,4.7
2023-01-13T19:59:23.727Z,4.6
2023-01-13T20:04:26.000Z,4.6
2023-01-13T20:09:28.196Z,4.6
2023-01-13T20:14:30.281Z,4.6
2023-01-13T20:19:32.567Z,4.6
2023-01-13T20:24:34.589Z,4.6
2023-01-13T20:29:37.561Z,4.6
2023-01-13T20:34:39.694Z,4.6
2023-01-13T20:39:41.792Z,4.6
2023-01-13T20:44:43.994Z,4.6
2023-01-13T20:49:46.193Z,4.6
2023-01-13T20:54:48.234Z,4.6
2023-01-13T20:59:50.469Z,4.6
2023-01-13T21:04:52.517Z,4.6
2023-01-13T21:09:54.745Z,4.7
2023-01-13T21:14:57.024Z,4.7
2023-01-13T21:19:59.515Z,4.8
2023-01-13T21:25:02.027Z,4.8
2023-01-13T21:30:04.191Z,4.8
2023-01-13T21:35:06.427Z,4.7
2023-01-13T21:40:08.664Z,4.7
2023-01-13T21:45:10.854Z,4.6
2023-01-13T21:50:14.512Z,4.6
2023-01-13T21:55:16.709Z,4.6
2023-01-13T22:00:19.635Z,4.7
2023-01-13T22:05:25.348Z,4.7
2023-01-13T22:10:27.889Z,4.7
2023-01-13T22:15:29.972Z,4.7
2023-01-13T22:20:32.214Z,4.7
2023-01-13T22:25:35.332Z,4.6
2023-01-13T22:30:37.549Z,4.6
2023-01-13T22:35:39.725Z,4.7
2023-01-13T22:40:41.933Z,4.7
2023-01-13T22:45:44.144Z,4.7
2023-01-13T22:50:46.459Z,4.7
2023-01-13T22:55:48.508Z,4.7
2023-01-13T23:00:50.525Z,4.7
2023-01-13T23:05:52.565Z,4.7
2023-01-13T23:10:54.803Z,4.7
2023-01-13T23:15:56.944Z,4.7
2023-01-13T23:20:59.091Z,4.8
2023-01-13T23:26:01.308Z,4.7
2023-01-13T23:31:04.141Z,4.6
2023-01-13T23:36:06.257Z,4.6
2023-01-13T23:41:08.355Z,4.6
2023-01-13T23:46:10.513Z,4.6
2023-01-13T23:51:12.818Z,4.5
2023-01-13T23:56:15.009Z,4.3
